createdAt,value
2018-01-30T00:01:00.804Z,102001.98
2018-01-30T00:03:29.125Z,101999.47
2018-01-30T00:05:57.675Z,102006.67
2018-01-30T00:08:26.029Z,102012.30
2018-01-30T00:10:54.353Z,102015.12
2018-01-30T00:13:22.702Z,102016.02
2018-01-30T00:15:51.484Z,102013.98
2018-01-30T00:18:19.811Z,102018.50
2018-01-30T00:20:48.879Z,102025.91
2018-01-30T00:23:17.252Z,102017.78
2018-01-30T00:25:45.549Z,102019.63
2018-01-30T00:28:13.866Z,102024.92
2018-01-30T00:30:42.997Z,102027.24
2018-01-30T00:33:11.314Z,102036.70
2018-01-30T00:35:40.384Z,102045.55
2018-01-30T00:38:09.024Z,102045.28
2018-01-30T00:40:37.329Z,102053.02
2018-01-30T00:43:05.624Z,102055.45
2018-01-30T00:45:33.948Z,102054.30
2018-01-30T00:48:03.044Z,102059.28
2018-01-30T00:50:32.105Z,102056.56
2018-01-30T00:53:00.927Z,102063.79
2018-01-30T00:55:29.237Z,102060.83
2018-01-30T00:57:57.585Z,102061.21
2018-01-30T01:00:27.102Z,102063.60
2018-01-30T01:02:55.507Z,102079.23
2018-01-30T01:05:23.804Z,102089.49
2018-01-30T01:07:52.151Z,102102.41
2018-01-30T01:10:20.472Z,102105.15
2018-01-30T01:12:48.786Z,102104.52
2018-01-30T01:15:17.168Z,102107.33
2018-01-30T01:17:45.496Z,102118.75
2018-01-30T01:20:13.820Z,102133.89
2018-01-30T01:22:42.357Z,102133.60
2018-01-30T01:25:10.662Z,102134.97
2018-01-30T01:27:38.968Z,102135.83
2018-01-30T01:30:07.555Z,102146.00
2018-01-30T01:32:35.861Z,102147.64
2018-01-30T01:35:04.183Z,102153.21
2018-01-30T01:37:33.336Z,102153.05
2018-01-30T01:40:01.672Z,102148.08
2018-01-30T01:42:29.993Z,102159.13
2018-01-30T01:44:58.510Z,102150.88
2018-01-30T01:47:26.816Z,102154.11
2018-01-30T01:49:55.928Z,102160.80
2018-01-30T01:52:24.259Z,102157.13
2018-01-30T01:54:52.576Z,102147.97
2018-01-30T01:57:20.921Z,102159.34
2018-01-30T01:59:49.272Z,102165.97
2018-01-30T02:02:17.590Z,102158.64
2018-01-30T02:04:46.666Z,102165.37
2018-01-30T02:07:15.803Z,102157.72
2018-01-30T02:09:44.112Z,102150.88
2018-01-30T02:12:12.417Z,102156.81
2018-01-30T02:14:40.752Z,102156.16
2018-01-30T02:17:09.080Z,102150.55
2018-01-30T02:19:37.419Z,102153.47
2018-01-30T02:22:05.756Z,102143.77
2018-01-30T02:24:34.859Z,102166.50
2018-01-30T02:27:04.000Z,102161.05
2018-01-30T02:29:32.619Z,102173.19
2018-01-30T02:32:01.017Z,102161.39
2018-01-30T02:34:29.344Z,102160.84
2018-01-30T02:36:57.665Z,102157.45
2018-01-30T02:39:25.969Z,102172.22
2018-01-30T02:41:55.060Z,102165.97
2018-01-30T02:44:23.884Z,102168.87
2018-01-30T02:46:52.220Z,102169.58
2018-01-30T02:49:20.611Z,102186.66
2018-01-30T02:51:49.633Z,102183.16
2018-01-30T02:54:17.940Z,102188.38
2018-01-30T02:56:47.016Z,102188.48
2018-01-30T02:59:15.360Z,102188.86
2018-01-30T03:01:43.679Z,102186.02
2018-01-30T03:04:12.032Z,102183.11
2018-01-30T03:06:40.370Z,102189.23
2018-01-30T03:09:08.739Z,102179.52
2018-01-30T03:11:37.080Z,102189.51
2018-01-30T03:14:06.787Z,102185.55
2018-01-30T03:16:35.128Z,102183.79
2018-01-30T03:19:03.574Z,102180.77
2018-01-30T03:21:33.180Z,102180.45
2018-01-30T03:24:02.459Z,102175.82
2018-01-30T03:26:30.836Z,102175.33
2018-01-30T03:28:59.243Z,102181.14
2018-01-30T03:31:27.587Z,102184.53
2018-01-30T03:33:55.897Z,102181.94
2018-01-30T03:36:25.187Z,102185.28
2018-01-30T03:38:54.276Z,102192.86
2018-01-30T03:41:23.386Z,102190.91
2018-01-30T03:43:52.562Z,102189.65
2018-01-30T03:46:20.876Z,102191.02
2018-01-30T03:48:49.207Z,102184.80
2018-01-30T03:51:17.641Z,102193.02
2018-01-30T03:53:45.987Z,102193.17
2018-01-30T03:56:14.311Z,102188.56
2018-01-30T03:58:43.276Z,102190.98
2018-01-30T04:01:12.409Z,102180.06
2018-01-30T04:03:40.793Z,102191.28
2018-01-30T04:06:09.188Z,102187.02
2018-01-30T04:08:37.557Z,102196.17
2018-01-30T04:11:05.865Z,102197.26
2018-01-30T04:13:34.277Z,102205.92
2018-01-30T04:16:02.635Z,102193.31
2018-01-30T04:18:31.302Z,102209.45
2018-01-30T04:20:59.948Z,102214.53
2018-01-30T04:23:28.252Z,102209.13
2018-01-30T04:25:56.691Z,102219.26
2018-01-30T04:28:25.061Z,102207.34
2018-01-30T04:30:53.425Z,102210.23
2018-01-30T04:33:22.612Z,102206.05
2018-01-30T04:35:51.232Z,102213.66
2018-01-30T04:38:19.564Z,102222.02
2018-01-30T04:40:48.002Z,102218.12
2018-01-30T04:43:17.052Z,102218.76
2018-01-30T04:45:45.402Z,102222.00
2018-01-30T04:48:13.704Z,102222.02
2018-01-30T04:50:42.079Z,102222.27
2018-01-30T04:53:10.397Z,102230.23
2018-01-30T04:55:38.759Z,102229.14
2018-01-30T04:58:07.223Z,102231.50
2018-01-30T05:00:35.705Z,102242.98
2018-01-30T05:03:04.131Z,102263.17
2018-01-30T05:05:32.891Z,102261.28
2018-01-30T05:08:01.353Z,102256.13
2018-01-30T05:10:29.736Z,102258.62
2018-01-30T05:12:58.549Z,102257.41
2018-01-30T05:15:26.927Z,102255.73
2018-01-30T05:17:56.008Z,102251.20
2018-01-30T05:20:25.126Z,102265.53
2018-01-30T05:22:53.482Z,102261.80
2018-01-30T05:25:21.790Z,102261.06
2018-01-30T05:27:50.217Z,102263.08
2018-01-30T05:30:18.520Z,102271.39
2018-01-30T05:32:46.847Z,102271.00
2018-01-30T05:35:15.191Z,102284.48
2018-01-30T05:37:44.390Z,102287.09
2018-01-30T05:40:12.706Z,102288.00
2018-01-30T05:42:41.047Z,102290.28
2018-01-30T05:45:10.135Z,102284.39
2018-01-30T05:47:39.260Z,102287.48
2018-01-30T05:50:08.689Z,102283.98
2018-01-30T05:52:36.995Z,102283.59
2018-01-30T05:55:05.391Z,102287.07
2018-01-30T05:57:34.512Z,102298.63
2018-01-30T06:00:02.855Z,102299.03
2018-01-30T06:02:31.200Z,102304.71
2018-01-30T06:04:59.569Z,102303.56
2018-01-30T06:07:27.895Z,102304.89
2018-01-30T06:09:56.222Z,102317.72
2018-01-30T06:12:24.669Z,102320.70
2018-01-30T06:14:52.981Z,102318.19
2018-01-30T06:17:21.292Z,102325.00
2018-01-30T06:19:49.846Z,102324.60
2018-01-30T06:22:18.160Z,102320.44
2018-01-30T06:24:46.462Z,102310.01
2018-01-30T06:27:15.601Z,102315.06
2018-01-30T06:29:43.909Z,102326.11
2018-01-30T06:32:12.215Z,102325.62
2018-01-30T06:34:41.928Z,102324.15
2018-01-30T06:37:11.059Z,102333.70
2018-01-30T06:39:39.404Z,102325.71
2018-01-30T06:42:08.523Z,102329.53
2018-01-30T06:44:36.917Z,102336.06
2018-01-30T06:47:05.283Z,102327.38
2018-01-30T06:49:34.384Z,102340.98
2018-01-30T06:52:02.791Z,102331.68
2018-01-30T06:54:31.084Z,102343.73
2018-01-30T06:56:59.652Z,102335.33
2018-01-30T06:59:28.055Z,102332.45
2018-01-30T07:01:56.428Z,102331.47
2018-01-30T07:04:24.781Z,102332.48
2018-01-30T07:06:53.107Z,102335.69
2018-01-30T07:09:22.175Z,102337.48
2018-01-30T07:11:50.516Z,102346.09
2018-01-30T07:14:18.852Z,102339.55
2018-01-30T07:16:47.176Z,102328.16
2018-01-30T07:19:16.010Z,102341.23
2018-01-30T07:21:44.329Z,102357.80
2018-01-30T07:24:12.715Z,102354.42
2018-01-30T07:26:41.075Z,102355.81
2018-01-30T07:29:09.389Z,102354.77
2018-01-30T07:31:37.724Z,102356.30
2018-01-30T07:34:06.863Z,102363.62
2018-01-30T07:36:35.205Z,102364.97
2018-01-30T07:39:03.649Z,102364.55
2018-01-30T07:41:32.292Z,102360.36
2018-01-30T07:44:00.618Z,102359.27
2018-01-30T07:46:28.960Z,102363.05
2018-01-30T07:48:57.321Z,102364.17
2018-01-30T07:51:25.655Z,102365.63
2018-01-30T07:53:54.042Z,102364.17
2018-01-30T07:56:22.485Z,102369.23
2018-01-30T07:58:50.828Z,102361.08
2018-01-30T08:01:20.040Z,102369.06
2018-01-30T08:03:48.653Z,102373.61
2018-01-30T08:06:16.946Z,102382.00
2018-01-30T08:08:45.356Z,102379.90
2018-01-30T08:11:14.499Z,102387.02
2018-01-30T08:13:42.807Z,102389.16
2018-01-30T08:16:11.101Z,102402.34
2018-01-30T08:18:40.312Z,102401.62
2018-01-30T08:21:09.399Z,102401.79
2018-01-30T08:23:37.741Z,102415.09
2018-01-30T08:26:07.262Z,102411.14
2018-01-30T08:28:35.615Z,102408.64
2018-01-30T08:31:03.938Z,102405.39
2018-01-30T08:33:32.280Z,102415.85
2018-01-30T08:36:00.587Z,102396.83
2018-01-30T08:38:28.904Z,102409.30
2018-01-30T08:40:57.281Z,102400.78
2018-01-30T08:43:25.597Z,102411.08
2018-01-30T08:45:53.924Z,102401.24
2018-01-30T08:48:22.604Z,102394.61
2018-01-30T08:50:50.932Z,102402.89
2018-01-30T08:53:19.256Z,102405.34
2018-01-30T08:55:47.587Z,102418.23
2018-01-30T08:58:15.907Z,102417.11
2018-01-30T09:00:44.222Z,102417.36
2018-01-30T09:03:12.561Z,102416.03
2018-01-30T09:05:40.866Z,102416.34
2018-01-30T09:08:09.953Z,102418.12
2018-01-30T09:10:39.401Z,102408.81
2018-01-30T09:13:07.711Z,102414.97
2018-01-30T09:15:42.851Z,102402.53
2018-01-30T09:18:11.191Z,102399.87
2018-01-30T09:20:39.558Z,102397.98
2018-01-30T09:23:08.288Z,102406.77
2018-01-30T09:25:36.628Z,102398.84
2018-01-30T09:28:04.960Z,102409.18
2018-01-30T09:30:33.893Z,102408.70
2018-01-30T09:33:02.196Z,102401.91
2018-01-30T09:35:30.519Z,102400.27
2018-01-30T09:37:58.841Z,102410.41
2018-01-30T09:40:27.148Z,102415.64
2018-01-30T09:42:55.585Z,102419.29
2018-01-30T09:45:23.961Z,102404.02
2018-01-30T09:47:52.283Z,102428.95
2018-01-30T09:50:20.612Z,102434.87
2018-01-30T09:52:49.218Z,102439.25
2018-01-30T09:58:03.515Z,102445.84
2018-01-30T10:00:31.966Z,102461.41
2018-01-30T10:03:00.299Z,102445.59
2018-01-30T10:05:28.664Z,102445.33
2018-01-30T10:07:57.036Z,102453.81
2018-01-30T10:10:25.355Z,102459.74
2018-01-30T10:12:54.097Z,102465.91
2018-01-30T10:15:22.423Z,102463.09
2018-01-30T10:17:50.773Z,102471.38
2018-01-30T10:20:19.124Z,102476.88
2018-01-30T10:22:47.429Z,102464.15
2018-01-30T10:25:15.731Z,102465.91
2018-01-30T10:27:44.088Z,102472.61
2018-01-30T10:30:12.422Z,102477.19
2018-01-30T10:32:40.757Z,102485.66
2018-01-30T10:35:10.249Z,102487.02
2018-01-30T10:37:38.816Z,102481.47
2018-01-30T10:40:07.130Z,102470.20
2018-01-30T10:42:35.475Z,102469.52
2018-01-30T10:45:03.797Z,102481.53
2018-01-30T10:47:32.125Z,102471.58
2018-01-30T10:50:00.488Z,102465.13
2018-01-30T10:52:28.800Z,102458.84
2018-01-30T10:54:57.893Z,102458.09
2018-01-30T10:57:26.370Z,102458.77
2018-01-30T10:59:54.683Z,102459.86
2018-01-30T11:02:23.041Z,102460.28
2018-01-30T11:04:51.429Z,102458.69
2018-01-30T11:07:19.763Z,102466.73
2018-01-30T11:09:48.114Z,102454.30
2018-01-30T11:12:16.500Z,102456.19
2018-01-30T11:14:44.825Z,102444.17
2018-01-30T11:17:13.665Z,102438.71
2018-01-30T11:19:42.362Z,102451.10
2018-01-30T11:22:10.749Z,102450.69
2018-01-30T11:24:39.093Z,102454.13
2018-01-30T11:27:07.446Z,102450.60
2018-01-30T11:29:35.821Z,102452.34
2018-01-30T11:32:04.152Z,102450.87
2018-01-30T11:34:32.509Z,102450.44
2018-01-30T11:37:00.892Z,102449.23
2018-01-30T11:39:29.199Z,102453.45
2018-01-30T11:41:57.923Z,102451.39
2018-01-30T11:44:26.264Z,102449.12
2018-01-30T11:46:54.636Z,102439.03
2018-01-30T11:49:23.020Z,102446.81
2018-01-30T11:51:51.431Z,102436.81
2018-01-30T11:54:19.751Z,102435.36
2018-01-30T11:56:48.875Z,102445.88
2018-01-30T11:59:17.200Z,102439.60
2018-01-30T12:01:46.343Z,102430.68
2018-01-30T12:04:15.005Z,102434.67
2018-01-30T12:06:44.110Z,102435.48
2018-01-30T12:09:12.434Z,102432.44
2018-01-30T12:11:40.752Z,102415.92
2018-01-30T12:14:09.884Z,102419.03
2018-01-30T12:16:38.212Z,102417.91
2018-01-30T12:19:06.568Z,102422.09
2018-01-30T12:21:34.928Z,102417.42
2018-01-30T12:24:03.330Z,102413.43
2018-01-30T12:26:32.062Z,102409.30
2018-01-30T12:29:01.133Z,102401.88
2018-01-30T12:31:29.468Z,102390.02
2018-01-30T12:33:57.840Z,102386.37
2018-01-30T12:36:26.160Z,102383.45
2018-01-30T12:38:54.476Z,102386.48
2018-01-30T12:41:22.892Z,102397.86
2018-01-30T12:43:51.992Z,102398.19
2018-01-30T12:46:20.337Z,102389.26
2018-01-30T12:48:49.087Z,102375.83
2018-01-30T12:51:17.413Z,102383.81
2018-01-30T12:53:45.730Z,102378.44
2018-01-30T12:56:14.088Z,102380.88
2018-01-30T12:58:42.490Z,102376.33
2018-01-30T13:01:10.821Z,102371.78
2018-01-30T13:03:39.193Z,102373.87
2018-01-30T13:06:07.544Z,102370.34
2018-01-30T13:08:36.625Z,102367.19
2018-01-30T13:11:05.325Z,102358.39
2018-01-30T13:13:33.778Z,102367.47
2018-01-30T13:16:02.137Z,102354.27
2018-01-30T13:18:30.483Z,102357.45
2018-01-30T13:20:58.892Z,102350.83
2018-01-30T13:23:27.220Z,102341.02
2018-01-30T13:25:55.560Z,102340.12
2018-01-30T13:28:24.645Z,102342.93
2018-01-30T13:30:52.969Z,102346.34
2018-01-30T13:33:21.547Z,102350.11
2018-01-30T13:35:49.881Z,102346.86
2018-01-30T13:38:18.200Z,102354.59
2018-01-30T13:40:46.531Z,102357.70
2018-01-30T13:43:14.910Z,102350.35
2018-01-30T13:45:43.236Z,102356.62
2018-01-30T13:48:11.606Z,102354.31
2018-01-30T13:50:39.958Z,102353.39
2018-01-30T13:53:08.290Z,102353.61
2018-01-30T13:55:37.898Z,102352.20
2018-01-30T13:58:07.036Z,102362.15
2018-01-30T14:00:36.481Z,102355.36
2018-01-30T14:03:04.849Z,102350.69
2018-01-30T14:05:33.194Z,102345.09
2018-01-30T14:08:01.502Z,102341.59
2018-01-30T14:10:29.864Z,102340.81
2018-01-30T14:12:58.578Z,102331.17
2018-01-30T14:15:27.559Z,102331.47
2018-01-30T14:17:56.719Z,102339.22
2018-01-30T14:20:24.992Z,102343.25
2018-01-30T14:22:53.282Z,102343.83
2018-01-30T14:25:21.771Z,102353.20
2018-01-30T14:27:50.099Z,102344.25
2018-01-30T14:30:18.530Z,102343.06
2018-01-30T14:32:46.882Z,102331.10
2018-01-30T14:35:15.967Z,102338.48
2018-01-30T14:37:45.081Z,102342.30
2018-01-30T14:40:13.833Z,102340.39
2018-01-30T14:42:42.139Z,102345.86
2018-01-30T14:45:11.210Z,102341.56
2018-01-30T14:47:39.533Z,102336.66
2018-01-30T14:50:07.837Z,102341.91
2018-01-30T14:52:36.133Z,102342.05
2018-01-30T14:55:04.476Z,102347.86
2018-01-30T14:57:32.820Z,102331.57
2018-01-30T15:00:01.925Z,102334.73
2018-01-30T15:02:31.300Z,102358.64
2018-01-30T15:04:59.631Z,102356.27
2018-01-30T15:07:27.987Z,102354.16
2018-01-30T15:09:56.337Z,102344.91
2018-01-30T15:12:24.764Z,102353.92
2018-01-30T15:14:53.084Z,102344.92
2018-01-30T15:17:21.465Z,102340.55
2018-01-30T15:19:49.836Z,102341.91
2018-01-30T15:22:18.143Z,102348.98
2018-01-30T15:24:47.540Z,102341.97
2018-01-30T15:27:16.659Z,102341.78
2018-01-30T15:29:44.988Z,102326.22
2018-01-30T15:32:13.334Z,102317.48
2018-01-30T15:34:41.639Z,102315.02
2018-01-30T15:37:09.971Z,102320.80
2018-01-30T15:39:38.312Z,102319.94
2018-01-30T15:42:06.624Z,102312.18
2018-01-30T15:44:35.704Z,102311.95
2018-01-30T15:47:04.754Z,102309.31
2018-01-30T15:49:33.067Z,102305.09
2018-01-30T15:52:01.367Z,102300.98
2018-01-30T15:54:30.452Z,102303.74
2018-01-30T15:56:59.144Z,102304.77
2018-01-30T15:59:28.256Z,102298.44
2018-01-30T16:01:56.612Z,102297.09
2018-01-30T16:04:24.934Z,102286.16
2018-01-30T16:06:53.252Z,102296.05
2018-01-30T16:09:22.067Z,102296.27
2018-01-30T16:11:51.163Z,102292.80
2018-01-30T16:14:19.681Z,102279.02
2018-01-30T16:16:48.134Z,102278.28
2018-01-30T16:19:16.424Z,102270.23
2018-01-30T16:21:44.813Z,102269.38
2018-01-30T16:24:13.143Z,102258.15
2018-01-30T16:26:41.453Z,102250.22
2018-01-30T16:29:10.535Z,102249.90
2018-01-30T16:31:39.266Z,102260.24
2018-01-30T16:34:07.625Z,102259.59
2018-01-30T16:36:35.955Z,102251.80
2018-01-30T16:39:04.296Z,102254.59
2018-01-30T16:41:32.632Z,102260.26
2018-01-30T16:44:00.964Z,102249.83
2018-01-30T16:46:29.326Z,102245.22
2018-01-30T16:48:57.665Z,102239.76
2018-01-30T16:51:25.986Z,102241.41
2018-01-30T16:53:54.441Z,102241.95
2018-01-30T16:56:22.772Z,102240.17
2018-01-30T16:58:51.423Z,102237.98
2018-01-30T17:01:19.781Z,102234.17
2018-01-30T17:03:48.106Z,102219.80
2018-01-30T17:06:16.459Z,102219.94
2018-01-30T17:08:44.808Z,102216.97
2018-01-30T17:11:13.151Z,102209.20
2018-01-30T17:13:41.484Z,102199.84
2018-01-30T17:16:10.163Z,102192.50
2018-01-30T17:18:39.272Z,102191.92
2018-01-30T17:21:07.604Z,102190.02
2018-01-30T17:23:36.159Z,102176.91
2018-01-30T17:26:04.476Z,102182.87
2018-01-30T17:28:33.328Z,102184.57
2018-01-30T17:31:01.683Z,102175.38
2018-01-30T17:33:29.989Z,102184.17
2018-01-30T17:35:58.320Z,102189.77
2018-01-30T17:38:26.890Z,102191.86
2018-01-30T17:40:55.232Z,102190.98
2018-01-30T17:43:23.581Z,102192.16
2018-01-30T17:45:51.942Z,102196.33
2018-01-30T17:48:20.407Z,102198.41
2018-01-30T17:50:49.620Z,102194.93
2018-01-30T17:53:18.003Z,102200.83
2018-01-30T17:55:47.078Z,102195.52
2018-01-30T17:58:16.178Z,102201.98
2018-01-30T18:00:45.020Z,102205.49
2018-01-30T18:03:13.335Z,102198.02
2018-01-30T18:05:41.665Z,102201.16
2018-01-30T18:08:10.011Z,102209.55
2018-01-30T18:10:39.116Z,102200.23
2018-01-30T18:13:07.472Z,102204.05
2018-01-30T18:15:35.809Z,102206.47
2018-01-30T18:18:04.184Z,102210.80
2018-01-30T18:20:32.503Z,102210.16
2018-01-30T18:23:01.079Z,102213.13
2018-01-30T18:25:29.415Z,102223.05
2018-01-30T18:27:57.721Z,102213.78
2018-01-30T18:30:26.075Z,102224.07
2018-01-30T18:32:54.479Z,102217.81
2018-01-30T18:35:23.568Z,102215.95
2018-01-30T18:37:52.693Z,102223.03
2018-01-30T18:40:21.014Z,102213.99
2018-01-30T18:42:49.409Z,102215.97
2018-01-30T18:45:18.063Z,102206.76
2018-01-30T18:47:46.388Z,102205.26
2018-01-30T18:50:14.726Z,102206.37
2018-01-30T18:52:43.991Z,102202.72
2018-01-30T18:55:12.303Z,102209.27
2018-01-30T18:57:40.630Z,102202.59
2018-01-30T19:00:08.993Z,102201.95
2018-01-30T19:02:37.336Z,102200.30
2018-01-30T19:05:05.680Z,102190.70
2018-01-30T19:07:34.510Z,102194.37
2018-01-30T19:10:02.830Z,102189.73
2018-01-30T19:12:31.176Z,102184.49
2018-01-30T19:14:59.899Z,102186.93
2018-01-30T19:17:28.323Z,102177.92
2018-01-30T19:19:56.663Z,102176.88
2018-01-30T19:22:25.120Z,102177.36
2018-01-30T19:24:53.447Z,102171.34
2018-01-30T19:27:21.802Z,102170.39
2018-01-30T19:29:50.384Z,102164.27
2018-01-30T19:32:18.717Z,102164.23
2018-01-30T19:34:47.013Z,102161.01
2018-01-30T19:37:15.369Z,102152.69
2018-01-30T19:39:43.836Z,102155.83
2018-01-30T19:42:12.907Z,102149.72
2018-01-30T19:44:41.251Z,102146.70
2018-01-30T19:47:09.588Z,102146.36
2018-01-30T19:49:38.674Z,102139.51
2018-01-30T19:52:07.491Z,102136.73
2018-01-30T19:54:35.823Z,102131.45
2018-01-30T19:57:04.175Z,102125.75
2018-01-30T19:59:32.517Z,102127.20
2018-01-30T20:02:00.836Z,102114.83
2018-01-30T20:04:29.146Z,102114.19
2018-01-30T20:06:57.505Z,102117.47
2018-01-30T20:09:25.846Z,102112.78
2018-01-30T20:11:54.244Z,102116.39
2018-01-30T20:14:23.009Z,102115.75
2018-01-30T20:16:51.344Z,102109.33
2018-01-30T20:19:19.724Z,102108.30
2018-01-30T20:21:48.051Z,102111.77
2018-01-30T20:24:16.533Z,102115.83
2018-01-30T20:26:45.756Z,102109.81
2018-01-30T20:29:14.136Z,102108.39
2018-01-30T20:31:42.441Z,102108.39
2018-01-30T20:34:10.884Z,102106.67
2018-01-30T20:36:39.386Z,102109.03
2018-01-30T20:39:09.517Z,102105.36
2018-01-30T20:41:37.901Z,102100.48
2018-01-30T20:44:06.288Z,102090.11
2018-01-30T20:46:34.631Z,102088.30
2018-01-30T20:49:02.951Z,102078.97
2018-01-30T20:51:31.339Z,102080.68
2018-01-30T20:53:59.842Z,102078.81
2018-01-30T20:56:28.217Z,102069.68
2018-01-30T20:58:57.119Z,102063.02
2018-01-30T21:01:25.482Z,102062.58
2018-01-30T21:03:54.590Z,102055.62
2018-01-30T21:06:23.718Z,102057.33
2018-01-30T21:08:52.078Z,102051.70
2018-01-30T21:11:20.392Z,102039.33
2018-01-30T21:13:50.410Z,102040.27
2018-01-30T21:16:19.635Z,102035.05
2018-01-30T21:18:47.961Z,102035.84
2018-01-30T21:21:16.628Z,102030.34
2018-01-30T21:23:45.095Z,102029.05
2018-01-30T21:26:14.203Z,102025.20
2018-01-30T21:28:42.757Z,102027.94
2018-01-30T21:31:11.291Z,102027.75
2018-01-30T21:33:39.629Z,102024.30
2018-01-30T21:36:08.756Z,102021.22
2018-01-30T21:38:37.094Z,102020.63
2018-01-30T21:41:05.405Z,102004.36
2018-01-30T21:43:34.215Z,102008.53
2018-01-30T21:46:02.535Z,101995.22
2018-01-30T21:48:30.843Z,101998.99
2018-01-30T21:50:59.165Z,101993.67
2018-01-30T21:53:27.487Z,101988.45
2018-01-30T21:55:56.683Z,101995.08
2018-01-30T21:58:25.018Z,101988.98
2018-01-30T22:00:53.342Z,101989.42
2018-01-30T22:03:22.454Z,101986.02
2018-01-30T22:05:51.241Z,101983.67
2018-01-30T22:08:19.552Z,101980.53
2018-01-30T22:10:47.865Z,101967.45
2018-01-30T22:13:16.207Z,101967.13
2018-01-30T22:15:44.524Z,101961.85
2018-01-30T22:18:12.874Z,101965.20
2018-01-30T22:20:41.212Z,101967.17
2018-01-30T22:23:09.524Z,101965.18
2018-01-30T22:25:37.863Z,101967.73
2018-01-30T22:28:07.180Z,101959.72
2018-01-30T22:30:35.503Z,101965.94
2018-01-30T22:33:03.837Z,101962.47
2018-01-30T22:35:32.180Z,101948.00
2018-01-30T22:38:00.528Z,101952.00
2018-01-30T22:40:28.894Z,101945.19
2018-01-30T22:42:57.272Z,101935.13
2018-01-30T22:45:25.588Z,101925.02
